createdAt,value
2019-02-24T00:01:59.890Z,55.40
2019-02-24T00:04:28.672Z,57.30
2019-02-24T00:06:58.640Z,57.40
2019-02-24T00:09:27.569Z,58.30
2019-02-24T00:11:56.637Z,57.50
2019-02-24T00:14:25.783Z,58.30
2019-02-24T00:16:54.785Z,57.30
2019-02-24T00:19:24.208Z,58.20
2019-02-24T00:21:53.094Z,60.50
2019-02-24T00:24:22.168Z,63.60
2019-02-24T00:26:50.835Z,68.00
2019-02-24T00:29:19.593Z,70.30
2019-02-24T00:31:48.163Z,71.70
2019-02-24T00:34:16.919Z,72.90
2019-02-24T00:36:45.658Z,75.10
2019-02-24T00:39:14.291Z,75.20
2019-02-24T00:41:43.730Z,75.60
2019-02-24T00:44:12.869Z,77.80
2019-02-24T00:46:41.879Z,77.40
2019-02-24T00:49:10.911Z,77.40
2019-02-24T00:51:40.111Z,77.00
2019-02-24T00:54:09.653Z,77.20
2019-02-24T00:56:38.298Z,78.00
2019-02-24T00:59:07.057Z,78.70
2019-02-24T01:01:35.577Z,80.00
2019-02-24T01:04:04.190Z,80.10
2019-02-24T01:06:32.748Z,79.00
2019-02-24T01:09:01.257Z,79.50
2019-02-24T01:11:30.092Z,79.40
2019-02-24T01:13:59.179Z,80.20
2019-02-24T01:16:27.780Z,80.20
2019-02-24T01:18:56.340Z,80.30
2019-02-24T01:21:25.170Z,79.80
2019-02-24T01:23:54.183Z,79.30
2019-02-24T01:26:23.840Z,79.00
2019-02-24T01:28:52.832Z,79.40
2019-02-24T01:31:21.972Z,80.00
2019-02-24T01:33:51.119Z,81.00
2019-02-24T01:36:20.536Z,81.60
2019-02-24T01:38:49.302Z,81.70
2019-02-24T01:41:18.156Z,82.00
2019-02-24T01:43:48.105Z,81.40
2019-02-24T01:46:17.262Z,81.20
2019-02-24T01:48:45.811Z,81.70
2019-02-24T01:51:15.489Z,82.20
2019-02-24T01:53:45.289Z,81.90
2019-02-24T01:56:13.919Z,82.10
2019-02-24T01:58:42.588Z,81.60
2019-02-24T02:01:11.127Z,80.90
2019-02-24T02:03:39.671Z,81.20
2019-02-24T02:06:08.929Z,81.50
2019-02-24T02:08:38.171Z,82.50
2019-02-24T02:11:06.894Z,83.40
2019-02-24T02:13:35.683Z,84.50
2019-02-24T02:16:05.690Z,85.10
2019-02-24T02:18:34.336Z,85.70
2019-02-24T02:21:03.663Z,86.00
2019-02-24T02:23:32.462Z,86.80
2019-02-24T02:26:02.285Z,87.10
2019-02-24T02:28:31.482Z,87.70
2019-02-24T02:31:00.312Z,87.80
2019-02-24T02:33:29.099Z,88.20
2019-02-24T02:35:58.071Z,88.20
2019-02-24T02:38:27.012Z,88.40
2019-02-24T02:40:55.976Z,89.20
2019-02-24T02:43:24.640Z,88.70
2019-02-24T02:45:54.467Z,88.80
2019-02-24T02:48:23.444Z,89.20
2019-02-24T02:50:52.297Z,89.60
2019-02-24T02:53:21.323Z,90.00
2019-02-24T02:55:50.445Z,90.00
2019-02-24T02:58:19.434Z,89.90
2019-02-24T03:00:48.191Z,90.10
2019-02-24T03:03:17.235Z,90.10
2019-02-24T03:05:47.813Z,90.20
2019-02-24T03:08:16.772Z,90.60
2019-02-24T03:10:45.596Z,90.60
2019-02-24T03:13:14.402Z,90.60
2019-02-24T03:15:43.373Z,90.60
2019-02-24T03:18:12.371Z,90.70
2019-02-24T03:20:40.942Z,91.00
2019-02-24T03:23:09.595Z,91.10
2019-02-24T03:25:38.213Z,91.10
2019-02-24T03:28:06.857Z,91.30
2019-02-24T03:30:35.477Z,91.20
2019-02-24T03:33:04.096Z,91.60
2019-02-24T03:35:33.259Z,91.50
2019-02-24T03:38:02.192Z,91.70
2019-02-24T03:40:31.386Z,91.90
2019-02-24T03:43:00.517Z,92.00
2019-02-24T03:45:29.438Z,92.10
2019-02-24T03:47:59.171Z,92.20
2019-02-24T03:50:27.964Z,92.50
2019-02-24T03:52:57.934Z,92.70
2019-02-24T03:55:26.959Z,92.90
2019-02-24T03:57:56.135Z,92.90
2019-02-24T04:00:25.136Z,93.30
2019-02-24T04:02:54.013Z,93.20
2019-02-24T04:05:23.219Z,93.30
2019-02-24T04:07:52.310Z,93.20
2019-02-24T04:10:21.320Z,93.40
2019-02-24T04:12:50.091Z,93.40
2019-02-24T04:15:19.196Z,93.40
2019-02-24T04:17:47.969Z,93.80
2019-02-24T04:20:18.008Z,93.70
2019-02-24T04:22:46.766Z,93.80
2019-02-24T04:25:15.568Z,93.90
2019-02-24T04:27:44.451Z,94.10
2019-02-24T04:30:13.589Z,94.00
2019-02-24T04:32:43.663Z,93.90
2019-02-24T04:35:12.704Z,94.00
2019-02-24T04:37:41.752Z,93.90
2019-02-24T04:40:10.878Z,93.80
2019-02-24T04:42:39.773Z,94.00
2019-02-24T04:45:09.959Z,93.90
2019-02-24T04:47:38.533Z,93.90
2019-02-24T04:50:07.799Z,94.00
2019-02-24T04:52:36.353Z,94.10
2019-02-24T04:55:05.898Z,94.10
2019-02-24T04:57:34.711Z,94.30
2019-02-24T05:00:03.466Z,94.30
2019-02-24T05:02:32.536Z,94.30
2019-02-24T05:05:01.795Z,94.30
2019-02-24T05:07:30.652Z,94.40
2019-02-24T05:10:00.511Z,94.40
2019-02-24T05:12:29.583Z,94.50
2019-02-24T05:14:58.476Z,94.50
2019-02-24T05:17:27.568Z,94.60
2019-02-24T05:19:56.598Z,94.40
2019-02-24T05:22:25.963Z,94.30
2019-02-24T05:24:54.864Z,94.40
2019-02-24T05:27:23.744Z,94.30
2019-02-24T05:29:52.736Z,94.40
2019-02-24T05:32:21.623Z,94.40
2019-02-24T05:34:50.393Z,94.50
2019-02-24T05:37:18.924Z,94.40
2019-02-24T05:39:48.516Z,94.40
2019-02-24T05:42:17.159Z,94.20
2019-02-24T05:44:46.338Z,94.40
2019-02-24T05:47:15.505Z,94.10
2019-02-24T05:49:44.283Z,94.20
2019-02-24T05:52:13.900Z,94.10
2019-02-24T05:54:42.889Z,94.10
2019-02-24T05:57:11.886Z,93.90
2019-02-24T05:59:40.850Z,93.90
2019-02-24T06:02:09.695Z,93.90
2019-02-24T06:04:40.200Z,94.00
2019-02-24T06:07:09.177Z,94.00
2019-02-24T06:09:38.064Z,94.00
2019-02-24T06:12:07.037Z,94.00
2019-02-24T06:14:36.060Z,94.00
2019-02-24T06:17:04.918Z,94.00
2019-02-24T06:19:35.137Z,93.90
2019-02-24T06:22:05.077Z,94.10
2019-02-24T06:24:34.051Z,94.10
2019-02-24T06:27:02.759Z,94.20
2019-02-24T06:29:31.925Z,94.20
2019-02-24T06:32:01.076Z,94.30
2019-02-24T06:34:29.794Z,94.30
2019-02-24T06:36:58.893Z,94.20
2019-02-24T06:39:27.783Z,94.10
2019-02-24T06:41:56.497Z,94.00
2019-02-24T06:44:25.534Z,94.10
2019-02-24T06:46:54.498Z,94.10
2019-02-24T06:49:23.392Z,94.00
2019-02-24T06:51:52.754Z,94.00
2019-02-24T06:54:21.846Z,94.00
2019-02-24T06:56:50.941Z,93.90
2019-02-24T06:59:20.183Z,93.90
2019-02-24T07:01:49.070Z,93.90
2019-02-24T07:04:17.737Z,94.00
2019-02-24T07:06:46.818Z,93.90
2019-02-24T07:09:16.436Z,93.70
2019-02-24T07:11:45.518Z,93.90
2019-02-24T07:14:14.587Z,93.80
2019-02-24T07:16:43.472Z,93.90
2019-02-24T07:19:12.591Z,93.80
2019-02-24T07:21:41.504Z,93.80
2019-02-24T07:24:10.493Z,93.70
2019-02-24T07:26:39.934Z,93.90
2019-02-24T07:29:08.941Z,93.70
2019-02-24T07:31:37.820Z,93.80
2019-02-24T07:34:06.685Z,93.60
2019-02-24T07:36:35.436Z,93.40
2019-02-24T07:39:04.584Z,93.30
2019-02-24T07:41:33.598Z,93.30
2019-02-24T07:44:02.630Z,93.20
2019-02-24T07:46:34.247Z,93.10
2019-02-24T07:49:03.476Z,93.00
2019-02-24T07:51:32.125Z,92.80
2019-02-24T07:54:00.794Z,92.80
2019-02-24T07:56:30.414Z,92.90
2019-02-24T07:58:59.099Z,92.80
2019-02-24T08:01:28.213Z,92.40
2019-02-24T08:03:59.012Z,92.40
2019-02-24T08:06:27.892Z,92.00
2019-02-24T08:08:57.731Z,92.10
2019-02-24T08:11:26.823Z,91.80
2019-02-24T08:13:55.793Z,91.70
2019-02-24T08:16:24.894Z,91.90
2019-02-24T08:18:53.778Z,91.70
2019-02-24T08:21:22.601Z,91.20
2019-02-24T08:23:51.606Z,91.40
2019-02-24T08:26:20.595Z,91.20
2019-02-24T08:28:49.250Z,91.10
2019-02-24T08:31:17.876Z,91.10
2019-02-24T08:33:46.865Z,91.10
2019-02-24T08:36:15.693Z,91.00
2019-02-24T08:38:44.695Z,91.20
2019-02-24T08:41:14.068Z,90.80
2019-02-24T08:43:43.726Z,91.00
2019-02-24T08:46:12.998Z,91.00
2019-02-24T08:48:42.255Z,91.30
2019-02-24T08:51:11.616Z,91.20
2019-02-24T08:53:40.626Z,91.40
2019-02-24T08:56:11.094Z,91.40
2019-02-24T08:58:40.242Z,91.60
2019-02-24T09:01:09.294Z,91.80
2019-02-24T09:03:38.618Z,91.90
2019-02-24T09:06:07.628Z,92.00
2019-02-24T09:08:37.303Z,92.10
2019-02-24T09:11:06.291Z,92.30
2019-02-24T09:13:35.317Z,92.40
2019-02-24T09:16:04.019Z,92.50
2019-02-24T09:18:32.597Z,92.70
2019-02-24T09:21:01.240Z,92.80
2019-02-24T09:23:29.907Z,92.60
2019-02-24T09:25:58.589Z,92.50
2019-02-24T09:28:27.450Z,92.30
2019-02-24T09:31:00.745Z,92.70
2019-02-24T09:33:27.276Z,92.60
2019-02-24T09:35:56.463Z,92.70
2019-02-24T09:38:25.234Z,92.70
2019-02-24T09:40:54.303Z,92.70
2019-02-24T09:43:23.552Z,92.60
2019-02-24T09:45:52.407Z,92.80
2019-02-24T09:48:21.383Z,92.80
2019-02-24T09:50:50.478Z,92.90
2019-02-24T09:53:19.370Z,92.80
2019-02-24T09:55:48.527Z,92.70
2019-02-24T09:58:17.353Z,92.90
2019-02-24T10:00:46.324Z,92.80
2019-02-24T10:03:15.811Z,93.00
2019-02-24T10:05:44.440Z,93.10
2019-02-24T10:08:13.037Z,93.00
2019-02-24T10:10:41.655Z,93.10
2019-02-24T10:13:10.837Z,93.20
2019-02-24T10:15:40.633Z,93.50
2019-02-24T10:18:09.997Z,93.40
2019-02-24T10:20:38.794Z,93.60
2019-02-24T10:23:07.685Z,93.70
2019-02-24T10:25:36.719Z,93.70
2019-02-24T10:28:05.871Z,93.70
2019-02-24T10:30:34.832Z,94.00
2019-02-24T10:33:03.972Z,93.80
2019-02-24T10:35:32.908Z,94.00
2019-02-24T10:38:01.879Z,93.90
2019-02-24T10:40:31.048Z,93.90
2019-02-24T10:42:59.750Z,94.00
2019-02-24T10:45:28.873Z,93.90
2019-02-24T10:47:57.652Z,93.90
2019-02-24T10:50:26.698Z,93.90
2019-02-24T10:52:55.353Z,93.90
2019-02-24T10:55:24.289Z,93.80
2019-02-24T10:57:53.206Z,93.80
2019-02-24T11:00:23.107Z,93.70
2019-02-24T11:02:52.296Z,93.70
2019-02-24T11:05:22.316Z,93.60
2019-02-24T11:07:51.438Z,93.50
2019-02-24T11:10:21.137Z,93.70
2019-02-24T11:12:50.622Z,93.70
2019-02-24T11:15:19.167Z,93.70
2019-02-24T11:17:48.691Z,93.60
2019-02-24T11:20:18.547Z,93.40
2019-02-24T11:22:47.591Z,93.50
2019-02-24T11:25:16.638Z,93.50
2019-02-24T11:27:46.574Z,93.50
2019-02-24T11:30:15.699Z,93.40
2019-02-24T11:32:44.396Z,93.40
2019-02-24T11:35:13.308Z,93.50
2019-02-24T11:37:42.037Z,93.40
2019-02-24T11:40:16.481Z,93.40
2019-02-24T11:42:45.184Z,93.40
2019-02-24T11:45:14.357Z,93.40
2019-02-24T11:47:44.248Z,93.30
2019-02-24T11:50:13.779Z,93.30
2019-02-24T11:52:42.765Z,93.40
2019-02-24T11:55:12.025Z,93.20
2019-02-24T11:57:41.889Z,93.30
2019-02-24T12:00:17.247Z,93.10
2019-02-24T12:02:46.127Z,93.20
2019-02-24T12:05:15.250Z,93.30
2019-02-24T12:07:44.423Z,93.20
2019-02-24T12:10:13.638Z,93.40
2019-02-24T12:12:42.716Z,93.30
2019-02-24T12:15:12.368Z,93.50
2019-02-24T12:17:41.117Z,93.50
2019-02-24T12:20:11.223Z,93.40
2019-02-24T12:22:39.773Z,93.30
2019-02-24T12:25:09.812Z,93.30
2019-02-24T12:27:38.684Z,93.30
2019-02-24T12:30:10.261Z,93.20
2019-02-24T12:32:39.288Z,93.20
2019-02-24T12:35:08.148Z,93.10
2019-02-24T12:37:37.314Z,93.50
2019-02-24T12:40:08.642Z,93.40
2019-02-24T12:42:37.575Z,93.20
2019-02-24T12:45:10.576Z,93.30
2019-02-24T12:47:39.667Z,93.40
2019-02-24T12:50:15.748Z,93.30
2019-02-24T12:52:44.695Z,93.30
2019-02-24T12:55:14.663Z,93.30
2019-02-24T12:57:43.857Z,93.30
2019-02-24T13:00:21.313Z,93.40
2019-02-24T13:02:50.348Z,93.40
2019-02-24T13:05:19.188Z,93.30
2019-02-24T13:07:47.783Z,93.20
2019-02-24T13:10:20.331Z,93.20
2019-02-24T13:12:49.465Z,93.40
2019-02-24T13:15:18.666Z,93.30
2019-02-24T13:17:47.747Z,93.20
2019-02-24T13:20:16.789Z,93.20
2019-02-24T13:22:45.893Z,93.30
2019-02-24T13:25:15.320Z,93.40
2019-02-24T13:27:44.643Z,93.40
2019-02-24T13:30:15.731Z,93.50
2019-02-24T13:32:44.964Z,93.40
2019-02-24T13:35:13.985Z,93.60
2019-02-24T13:37:43.179Z,93.50
2019-02-24T13:40:18.173Z,93.40
2019-02-24T13:42:47.940Z,93.60
2019-02-24T13:45:17.897Z,93.60
2019-02-24T13:47:46.838Z,93.60
2019-02-24T13:50:16.209Z,93.70
2019-02-24T13:52:45.948Z,93.60
2019-02-24T13:55:15.316Z,93.70
2019-02-24T13:57:44.882Z,93.60
2019-02-24T14:00:16.004Z,93.60
2019-02-24T14:02:45.151Z,93.50
2019-02-24T14:05:14.030Z,93.50
2019-02-24T14:07:42.948Z,93.50
2019-02-24T14:10:13.989Z,93.50
2019-02-24T14:12:43.111Z,93.50
2019-02-24T14:15:15.732Z,93.50
2019-02-24T14:17:44.705Z,93.50
2019-02-24T14:20:18.222Z,93.50
2019-02-24T14:22:47.316Z,93.40
2019-02-24T14:25:17.120Z,93.40
2019-02-24T14:27:45.653Z,93.30
2019-02-24T14:30:18.095Z,93.50
2019-02-24T14:32:46.971Z,93.30
2019-02-24T14:35:18.973Z,93.50
2019-02-24T14:37:48.076Z,93.50
2019-02-24T14:40:17.172Z,93.50
2019-02-24T14:42:46.115Z,93.70
2019-02-24T14:45:22.709Z,93.80
2019-02-24T14:47:51.779Z,93.90
2019-02-24T14:50:20.691Z,93.80
2019-02-24T14:52:49.558Z,94.00
2019-02-24T14:55:19.663Z,94.00
2019-02-24T14:57:48.564Z,94.00
2019-02-24T15:00:18.689Z,94.10
2019-02-24T15:02:47.919Z,94.10
2019-02-24T15:05:17.282Z,94.10
2019-02-24T15:07:46.527Z,94.10
2019-02-24T15:10:18.535Z,94.20
2019-02-24T15:12:47.179Z,94.10
2019-02-24T15:15:32.482Z,94.20
2019-02-24T15:17:56.648Z,94.10
2019-02-24T15:20:26.053Z,94.30
2019-02-24T15:22:55.361Z,94.20
2019-02-24T15:25:24.508Z,94.20
2019-02-24T15:27:53.573Z,94.10
2019-02-24T15:30:27.733Z,94.00
2019-02-24T15:32:56.616Z,94.20
2019-02-24T15:35:25.466Z,94.30
2019-02-24T15:37:54.355Z,94.30
2019-02-24T15:40:23.444Z,94.30
2019-02-24T15:42:52.664Z,94.40
2019-02-24T15:45:21.710Z,94.40
2019-02-24T15:47:50.742Z,94.40
2019-02-24T15:50:19.599Z,94.40
2019-02-24T15:52:48.509Z,94.50
2019-02-24T15:55:19.036Z,94.60
2019-02-24T15:57:48.137Z,94.50
2019-02-24T16:00:20.158Z,94.60
2019-02-24T16:02:48.814Z,94.70
2019-02-24T16:05:17.422Z,94.70
2019-02-24T16:07:46.421Z,94.80
2019-02-24T16:10:20.367Z,94.70
2019-02-24T16:12:50.287Z,94.70
2019-02-24T16:15:22.153Z,94.90
2019-02-24T16:17:51.342Z,94.90
2019-02-24T16:20:25.062Z,95.00
2019-02-24T16:22:53.984Z,94.80
2019-02-24T16:25:22.855Z,95.00
2019-02-24T16:27:52.171Z,95.00
2019-02-24T16:30:21.248Z,94.90
2019-02-24T16:32:50.393Z,94.90
2019-02-24T16:35:19.296Z,95.10
2019-02-24T16:37:48.449Z,95.20
2019-02-24T16:40:24.820Z,95.10
2019-02-24T16:42:53.658Z,95.30
2019-02-24T16:45:22.733Z,95.30
2019-02-24T16:47:51.702Z,95.30
2019-02-24T16:50:27.089Z,95.50
2019-02-24T16:52:56.367Z,95.40
2019-02-24T16:55:25.955Z,95.80
2019-02-24T16:57:54.919Z,95.60
2019-02-24T17:00:25.778Z,95.70
2019-02-24T17:02:55.021Z,95.70
2019-02-24T17:05:24.957Z,95.70
2019-02-24T17:07:53.725Z,95.70
2019-02-24T17:10:26.451Z,95.80
2019-02-24T17:12:55.152Z,95.80
2019-02-24T17:15:23.908Z,95.80
2019-02-24T17:17:53.878Z,95.80
2019-02-24T17:20:30.000Z,95.60
2019-02-24T17:22:58.969Z,94.00
2019-02-24T17:25:27.973Z,93.70
2019-02-24T17:27:56.583Z,93.40
2019-02-24T17:30:25.418Z,93.70
2019-02-24T17:32:54.027Z,93.90
2019-02-24T17:35:22.806Z,93.60
2019-02-24T17:37:51.700Z,92.50
2019-02-24T17:40:22.228Z,92.70
2019-02-24T17:42:51.216Z,92.90
2019-02-24T17:45:20.247Z,93.00
2019-02-24T17:47:49.445Z,92.90
2019-02-24T17:50:18.893Z,92.90
2019-02-24T17:52:47.901Z,92.40
2019-02-24T17:55:20.090Z,89.20
2019-02-24T17:57:49.172Z,89.50
2019-02-24T18:00:25.118Z,90.20
2019-02-24T18:02:54.397Z,88.30
2019-02-24T18:05:23.411Z,78.50
2019-02-24T18:07:52.413Z,73.60
2019-02-24T18:10:21.057Z,72.90
2019-02-24T18:12:49.992Z,74.80
2019-02-24T18:15:18.887Z,76.50
2019-02-24T18:17:47.858Z,76.10
2019-02-24T18:20:18.611Z,76.60
2019-02-24T18:22:47.684Z,77.40
2019-02-24T18:25:16.705Z,77.90
2019-02-24T18:27:45.382Z,78.70
2019-02-24T18:30:30.886Z,79.40
2019-02-24T18:32:59.977Z,81.30
2019-02-24T18:35:29.310Z,81.00
2019-02-24T18:37:58.229Z,78.00
2019-02-24T18:40:27.362Z,76.50
2019-02-24T18:43:00.323Z,74.20
2019-02-24T18:45:26.943Z,75.80
2019-02-24T18:47:55.698Z,75.90
2019-02-24T18:50:24.517Z,75.00
2019-02-24T18:52:53.533Z,74.50
2019-02-24T18:55:22.252Z,75.30
2019-02-24T18:57:51.002Z,72.90
2019-02-24T19:00:21.640Z,75.40
2019-02-24T19:02:50.817Z,76.50
2019-02-24T19:05:20.154Z,77.50
2019-02-24T19:07:49.181Z,74.90
2019-02-24T19:10:21.210Z,73.70
2019-02-24T19:12:50.953Z,71.40
2019-02-24T19:15:22.221Z,70.30
2019-02-24T19:17:51.240Z,63.50
2019-02-24T19:20:23.892Z,58.10
2019-02-24T19:22:52.985Z,56.50
2019-02-24T19:25:22.081Z,58.00
2019-02-24T19:27:51.646Z,60.70
2019-02-24T19:30:20.890Z,58.00
2019-02-24T19:32:49.886Z,61.20
2019-02-24T19:35:22.244Z,63.40
2019-02-24T19:37:51.499Z,64.30
2019-02-24T19:40:20.737Z,64.20
2019-02-24T19:42:50.655Z,64.90
2019-02-24T19:45:21.584Z,63.30
2019-02-24T19:47:50.241Z,62.00
2019-02-24T19:50:19.374Z,55.20
2019-02-24T19:52:48.582Z,57.50
2019-02-24T19:55:17.906Z,60.20
2019-02-24T19:57:47.812Z,60.80
2019-02-24T20:00:24.857Z,58.20
2019-02-24T20:02:53.995Z,57.30
2019-02-24T20:05:23.324Z,54.50
2019-02-24T20:07:52.936Z,58.30
2019-02-24T20:10:28.042Z,54.80
2019-02-24T20:12:57.000Z,57.70
2019-02-24T20:15:26.089Z,57.40
2019-02-24T20:17:55.276Z,55.80
2019-02-24T20:20:24.301Z,58.70
2019-02-24T20:22:53.585Z,59.80
2019-02-24T20:25:23.035Z,55.50
2019-02-24T20:27:51.827Z,60.10
2019-02-24T20:30:28.923Z,57.20
2019-02-24T20:32:57.951Z,56.40
2019-02-24T20:35:27.036Z,57.90
2019-02-24T20:37:56.262Z,52.10
2019-02-24T20:40:25.635Z,50.70
2019-02-24T20:42:54.739Z,51.20
2019-02-24T20:45:24.558Z,45.90
2019-02-24T20:47:53.947Z,32.80
2019-02-24T20:50:27.959Z,32.60
2019-02-24T20:52:56.844Z,35.80
2019-02-24T20:55:25.733Z,35.60
2019-02-24T20:57:54.829Z,37.30
2019-02-24T21:00:26.583Z,37.60
2019-02-24T21:02:56.771Z,35.40
2019-02-24T21:05:25.554Z,38.20
2019-02-24T21:07:54.481Z,40.40
2019-02-24T21:10:23.917Z,38.20
2019-02-24T21:12:53.027Z,42.00
2019-02-24T21:15:21.641Z,47.40
2019-02-24T21:17:50.577Z,48.10
2019-02-24T21:20:22.065Z,50.10
2019-02-24T21:22:50.897Z,53.40
2019-02-24T21:25:19.807Z,56.60
2019-02-24T21:27:48.878Z,57.90
2019-02-24T21:30:18.475Z,58.50
2019-02-24T21:32:47.636Z,60.80
2019-02-24T21:35:17.452Z,59.00
2019-02-24T21:37:46.615Z,60.00
2019-02-24T21:40:19.073Z,60.80
2019-02-24T21:42:47.972Z,61.70
2019-02-24T21:45:24.315Z,64.50
2019-02-24T21:47:53.367Z,63.20
2019-02-24T21:50:23.077Z,62.30
2019-02-24T21:52:52.110Z,61.60
2019-02-24T21:55:21.395Z,58.80
2019-02-24T21:57:50.998Z,60.00
2019-02-24T22:00:21.578Z,58.30
2019-02-24T22:02:51.660Z,60.90
2019-02-24T22:05:20.652Z,59.80
2019-02-24T22:07:50.017Z,55.70
2019-02-24T22:10:18.966Z,57.80
2019-02-24T22:12:48.065Z,59.30
2019-02-24T22:15:25.436Z,58.90
2019-02-24T22:17:54.425Z,59.20
2019-02-24T22:20:23.368Z,60.90
2019-02-24T22:22:52.453Z,60.60
2019-02-24T22:25:21.422Z,60.80
2019-02-24T22:27:50.297Z,59.10
2019-02-24T22:30:22.648Z,55.80
2019-02-24T22:32:52.781Z,55.80
2019-02-24T22:35:21.601Z,55.40
2019-02-24T22:37:50.637Z,52.30
2019-02-24T22:40:19.901Z,50.30
2019-02-24T22:42:48.957Z,49.70
2019-02-24T22:45:19.982Z,49.00
2019-02-24T22:47:49.203Z,51.90
2019-02-24T22:50:19.129Z,52.80
2019-02-24T22:52:48.198Z,48.30
2019-02-24T22:55:17.808Z,50.60
2019-02-24T22:57:48.030Z,51.40
2019-02-24T23:00:46.616Z,52.40
2019-02-24T23:03:15.504Z,49.60
2019-02-24T23:05:44.726Z,49.50
2019-02-24T23:08:14.164Z,45.00
2019-02-24T23:10:43.404Z,43.70
2019-02-24T23:13:12.286Z,44.60
2019-02-24T23:15:41.672Z,44.30
2019-02-24T23:18:10.679Z,45.00
2019-02-24T23:20:39.778Z,40.20
2019-02-24T23:23:08.667Z,42.90
2019-02-24T23:25:37.761Z,42.20
2019-02-24T23:28:06.408Z,43.40
2019-02-24T23:30:35.195Z,41.90
2019-02-24T23:33:04.359Z,41.10
2019-02-24T23:35:34.573Z,39.70
2019-02-24T23:38:03.641Z,39.30
2019-02-24T23:40:32.743Z,37.90
2019-02-24T23:43:01.732Z,37.70
2019-02-24T23:45:32.224Z,35.00
2019-02-24T23:48:01.073Z,33.60
2019-02-24T23:50:30.356Z,35.50
2019-02-24T23:53:00.266Z,30.50
2019-02-24T23:55:29.411Z,30.40
2019-02-24T23:57:58.391Z,30.40
